sensor_id;sensor_type;location;lat;lon;timestamp;temperature;humidity
30628;DHT22;17394;50.890;4.724;2023-04-07T00:01:31;8.60;99.90
30628;DHT22;17394;50.890;4.724;2023-04-07T00:03:57;8.60;99.90
30628;DHT22;17394;50.890;4.724;2023-04-07T00:06:23;8.60;99.90
30628;DHT22;17394;50.890;4.724;2023-04-07T00:08:48;8.60;99.90
30628;DHT22;17394;50.890;4.724;2023-04-07T00:11:14;8.60;99.90
30628;DHT22;17394;50.890;4.724;2023-04-07T00:13:40;8.50;99.90
30628;DHT22;17394;50.890;4.724;2023-04-07T00:16:05;8.60;99.90
30628;DHT22;17394;50.890;4.724;2023-04-07T00:18:31;8.60;99.90
30628;DHT22;17394;50.890;4.724;2023-04-07T00:20:56;8.50;99.90
30628;DHT22;17394;50.890;4.724;2023-04-07T00:23:22;8.50;99.90
30628;DHT22;17394;50.890;4.724;2023-04-07T00:25:48;8.50;99.90
30628;DHT22;17394;50.890;4.724;2023-04-07T00:28:14;8.50;99.90
30628;DHT22;17394;50.890;4.724;2023-04-07T00:30:39;8.50;99.90
30628;DHT22;17394;50.890;4.724;2023-04-07T00:33:05;8.50;99.90
30628;DHT22;17394;50.890;4.724;2023-04-07T00:35:30;8.50;99.90
30628;DHT22;17394;50.890;4.724;2023-04-07T00:37:56;8.50;99.90
30628;DHT22;17394;50.890;4.724;2023-04-07T00:40:22;8.40;99.90
30628;DHT22;17394;50.890;4.724;2023-04-07T00:42:48;8.40;99.90
30628;DHT22;17394;50.890;4.724;2023-04-07T00:45:13;8.40;99.90
30628;DHT22;17394;50.890;4.724;2023-04-07T00:47:39;8.40;99.90
30628;DHT22;17394;50.890;4.724;2023-04-07T00:50:05;8.50;99.90
30628;DHT22;17394;50.890;4.724;2023-04-07T00:52:33;8.50;99.90
30628;DHT22;17394;50.890;4.724;2023-04-07T00:55:00;8.50;99.90
30628;DHT22;17394;50.890;4.724;2023-04-07T00:57:25;8.50;99.90
30628;DHT22;17394;50.890;4.724;2023-04-07T00:59:51;8.40;99.90
30628;DHT22;17394;50.890;4.724;2023-04-07T01:02:20;8.40;99.90
30628;DHT22;17394;50.890;4.724;2023-04-07T01:07:17;8.30;99.90
30628;DHT22;17394;50.890;4.724;2023-04-07T01:09:45;8.30;99.90
30628;DHT22;17394;50.890;4.724;2023-04-07T01:14:49;8.30;99.90
30628;DHT22;17394;50.890;4.724;2023-04-07T01:17:16;8.30;99.90
30628;DHT22;17394;50.890;4.724;2023-04-07T01:19:47;8.20;99.90
30628;DHT22;17394;50.890;4.724;2023-04-07T01:22:17;8.20;99.90
30628;DHT22;17394;50.890;4.724;2023-04-07T01:27:21;8.20;99.90
30628;DHT22;17394;50.890;4.724;2023-04-07T01:29:49;8.20;99.90
30628;DHT22;17394;50.890;4.724;2023-04-07T01:32:17;8.20;99.90
30628;DHT22;17394;50.890;4.724;2023-04-07T01:34:44;8.20;99.90
30628;DHT22;17394;50.890;4.724;2023-04-07T01:37:12;8.20;99.90
30628;DHT22;17394;50.890;4.724;2023-04-07T01:39:39;8.20;99.90
30628;DHT22;17394;50.890;4.724;2023-04-07T01:42:05;8.20;99.90
30628;DHT22;17394;50.890;4.724;2023-04-07T01:44:31;8.20;99.90
30628;DHT22;17394;50.890;4.724;2023-04-07T01:46:57;8.20;99.90
30628;DHT22;17394;50.890;4.724;2023-04-07T01:49:24;8.10;99.90
30628;DHT22;17394;50.890;4.724;2023-04-07T01:51:50;8.10;99.90
30628;DHT22;17394;50.890;4.724;2023-04-07T01:54:16;8.10;99.90
30628;DHT22;17394;50.890;4.724;2023-04-07T01:56:42;8.10;99.90
30628;DHT22;17394;50.890;4.724;2023-04-07T01:59:08;8.00;99.90
30628;DHT22;17394;50.890;4.724;2023-04-07T02:01:34;8.00;99.90
30628;DHT22;17394;50.890;4.724;2023-04-07T02:04:19;7.90;99.90
30628;DHT22;17394;50.890;4.724;2023-04-07T02:06:58;7.90;99.90
30628;DHT22;17394;50.890;4.724;2023-04-07T02:09:24;7.80;99.90
30628;DHT22;17394;50.890;4.724;2023-04-07T02:11:51;7.70;99.90
30628;DHT22;17394;50.890;4.724;2023-04-07T02:14:18;7.60;99.90
30628;DHT22;17394;50.890;4.724;2023-04-07T02:16:45;7.60;99.90
30628;DHT22;17394;50.890;4.724;2023-04-07T02:19:11;7.50;99.90
30628;DHT22;17394;50.890;4.724;2023-04-07T02:21:37;7.50;99.90
30628;DHT22;17394;50.890;4.724;2023-04-07T02:24:07;7.50;99.90
30628;DHT22;17394;50.890;4.724;2023-04-07T02:26:36;7.40;99.90
30628;DHT22;17394;50.890;4.724;2023-04-07T02:29:02;7.40;99.90
30628;DHT22;17394;50.890;4.724;2023-04-07T02:31:28;7.40;99.90
30628;DHT22;17394;50.890;4.724;2023-04-07T02:33:53;7.40;99.90
30628;DHT22;17394;50.890;4.724;2023-04-07T02:36:19;7.40;99.90
30628;DHT22;17394;50.890;4.724;2023-04-07T02:38:45;7.40;99.90
30628;DHT22;17394;50.890;4.724;2023-04-07T02:41:10;7.30;99.90
30628;DHT22;17394;50.890;4.724;2023-04-07T02:43:36;7.30;99.90
30628;DHT22;17394;50.890;4.724;2023-04-07T02:46:02;7.30;99.90
30628;DHT22;17394;50.890;4.724;2023-04-07T02:48:27;7.20;99.90
30628;DHT22;17394;50.890;4.724;2023-04-07T02:50:53;7.20;99.90
30628;DHT22;17394;50.890;4.724;2023-04-07T02:53:18;7.10;99.90
30628;DHT22;17394;50.890;4.724;2023-04-07T02:55:44;7.10;99.90
30628;DHT22;17394;50.890;4.724;2023-04-07T02:58:10;7.00;99.90
30628;DHT22;17394;50.890;4.724;2023-04-07T03:00:36;7.00;99.90
30628;DHT22;17394;50.890;4.724;2023-04-07T03:03:01;7.00;99.90
30628;DHT22;17394;50.890;4.724;2023-04-07T03:05:27;6.90;99.90
30628;DHT22;17394;50.890;4.724;2023-04-07T03:07:53;6.90;99.90
30628;DHT22;17394;50.890;4.724;2023-04-07T03:10:18;6.80;99.90
30628;DHT22;17394;50.890;4.724;2023-04-07T03:12:44;6.90;99.90
30628;DHT22;17394;50.890;4.724;2023-04-07T03:15:10;6.90;99.90
30628;DHT22;17394;50.890;4.724;2023-04-07T03:17:35;6.90;99.90
30628;DHT22;17394;50.890;4.724;2023-04-07T03:20:01;6.90;99.90
30628;DHT22;17394;50.890;4.724;2023-04-07T03:22:27;6.90;99.90
30628;DHT22;17394;50.890;4.724;2023-04-07T03:24:52;7.00;99.90
30628;DHT22;17394;50.890;4.724;2023-04-07T03:27:18;6.90;99.90
30628;DHT22;17394;50.890;4.724;2023-04-07T03:29:44;6.90;99.90
30628;DHT22;17394;50.890;4.724;2023-04-07T03:32:11;6.90;99.90
30628;DHT22;17394;50.890;4.724;2023-04-07T03:34:37;6.90;99.90
30628;DHT22;17394;50.890;4.724;2023-04-07T03:37:02;6.90;99.90
30628;DHT22;17394;50.890;4.724;2023-04-07T03:39:28;6.90;99.90
30628;DHT22;17394;50.890;4.724;2023-04-07T03:41:54;6.90;99.90
30628;DHT22;17394;50.890;4.724;2023-04-07T03:44:20;6.90;99.90
30628;DHT22;17394;50.890;4.724;2023-04-07T03:46:46;7.00;99.90
30628;DHT22;17394;50.890;4.724;2023-04-07T03:49:13;6.90;99.90
30628;DHT22;17394;50.890;4.724;2023-04-07T03:51:38;6.90;99.90
30628;DHT22;17394;50.890;4.724;2023-04-07T03:54:06;6.90;99.90
30628;DHT22;17394;50.890;4.724;2023-04-07T03:56:31;7.00;99.90
30628;DHT22;17394;50.890;4.724;2023-04-07T03:58:57;7.00;99.90
30628;DHT22;17394;50.890;4.724;2023-04-07T04:01:23;7.00;99.90
30628;DHT22;17394;50.890;4.724;2023-04-07T04:03:48;7.00;99.90
30628;DHT22;17394;50.890;4.724;2023-04-07T04:06:14;7.00;99.90
30628;DHT22;17394;50.890;4.724;2023-04-07T04:08:40;7.00;99.90
30628;DHT22;17394;50.890;4.724;2023-04-07T04:11:06;7.00;99.90
30628;DHT22;17394;50.890;4.724;2023-04-07T04:13:31;7.10;99.90
30628;DHT22;17394;50.890;4.724;2023-04-07T04:15:57;7.10;99.90
30628;DHT22;17394;50.890;4.724;2023-04-07T04:18:22;7.10;99.90
30628;DHT22;17394;50.890;4.724;2023-04-07T04:20:48;7.10;99.90
30628;DHT22;17394;50.890;4.724;2023-04-07T04:23:14;7.20;99.90
30628;DHT22;17394;50.890;4.724;2023-04-07T04:25:40;7.10;99.90
30628;DHT22;17394;50.890;4.724;2023-04-07T04:28:06;7.10;99.90
30628;DHT22;17394;50.890;4.724;2023-04-07T04:30:31;7.10;99.90
30628;DHT22;17394;50.890;4.724;2023-04-07T04:32:57;7.20;99.90
30628;DHT22;17394;50.890;4.724;2023-04-07T04:35:23;7.20;99.90
30628;DHT22;17394;50.890;4.724;2023-04-07T04:37:48;7.20;99.90
30628;DHT22;17394;50.890;4.724;2023-04-07T04:40:14;7.10;99.90
30628;DHT22;17394;50.890;4.724;2023-04-07T04:42:40;7.20;99.90
30628;DHT22;17394;50.890;4.724;2023-04-07T04:45:06;7.20;99.90
30628;DHT22;17394;50.890;4.724;2023-04-07T04:47:31;7.10;99.90
30628;DHT22;17394;50.890;4.724;2023-04-07T04:49:57;7.10;99.90
30628;DHT22;17394;50.890;4.724;2023-04-07T04:52:23;7.10;99.90
30628;DHT22;17394;50.890;4.724;2023-04-07T04:54:48;7.10;99.90
30628;DHT22;17394;50.890;4.724;2023-04-07T04:57:14;7.10;99.90
30628;DHT22;17394;50.890;4.724;2023-04-07T04:59:40;7.00;99.90
30628;DHT22;17394;50.890;4.724;2023-04-07T05:02:06;7.00;99.90
30628;DHT22;17394;50.890;4.724;2023-04-07T05:04:35;6.90;99.90
30628;DHT22;17394;50.890;4.724;2023-04-07T05:07:01;6.80;99.90
30628;DHT22;17394;50.890;4.724;2023-04-07T05:09:26;6.80;99.90
30628;DHT22;17394;50.890;4.724;2023-04-07T05:11:52;6.70;99.90
30628;DHT22;17394;50.890;4.724;2023-04-07T05:14:18;6.60;99.90
30628;DHT22;17394;50.890;4.724;2023-04-07T05:16:43;6.60;99.90
30628;DHT22;17394;50.890;4.724;2023-04-07T05:19:09;6.40;99.90
30628;DHT22;17394;50.890;4.724;2023-04-07T05:21:34;6.30;99.90
30628;DHT22;17394;50.890;4.724;2023-04-07T05:24:00;6.20;99.90
30628;DHT22;17394;50.890;4.724;2023-04-07T05:26:26;6.10;99.90
30628;DHT22;17394;50.890;4.724;2023-04-07T05:28:52;6.00;99.90
30628;DHT22;17394;50.890;4.724;2023-04-07T05:31:17;5.90;99.90
30628;DHT22;17394;50.890;4.724;2023-04-07T05:33:43;5.80;99.90
30628;DHT22;17394;50.890;4.724;2023-04-07T05:36:09;5.80;99.90
30628;DHT22;17394;50.890;4.724;2023-04-07T05:38:34;5.70;99.90
30628;DHT22;17394;50.890;4.724;2023-04-07T05:41:00;5.70;99.90
30628;DHT22;17394;50.890;4.724;2023-04-07T05:43:26;5.70;99.90
30628;DHT22;17394;50.890;4.724;2023-04-07T05:45:51;5.70;99.90
30628;DHT22;17394;50.890;4.724;2023-04-07T05:48:17;5.70;99.90
30628;DHT22;17394;50.890;4.724;2023-04-07T05:50:43;5.90;99.90
30628;DHT22;17394;50.890;4.724;2023-04-07T05:53:08;6.00;99.90
30628;DHT22;17394;50.890;4.724;2023-04-07T05:55:34;6.10;99.90
30628;DHT22;17394;50.890;4.724;2023-04-07T05:58:00;6.10;99.90
30628;DHT22;17394;50.890;4.724;2023-04-07T06:00:26;6.20;99.90
30628;DHT22;17394;50.890;4.724;2023-04-07T06:02:52;6.30;99.90
30628;DHT22;17394;50.890;4.724;2023-04-07T06:05:18;6.40;99.90
30628;DHT22;17394;50.890;4.724;2023-04-07T06:07:44;6.50;99.90
30628;DHT22;17394;50.890;4.724;2023-04-07T06:10:09;6.60;99.90
30628;DHT22;17394;50.890;4.724;2023-04-07T06:12:35;6.70;99.90
30628;DHT22;17394;50.890;4.724;2023-04-07T06:15:01;6.80;99.90
30628;DHT22;17394;50.890;4.724;2023-04-07T06:17:26;7.00;99.90
30628;DHT22;17394;50.890;4.724;2023-04-07T06:19:52;7.20;99.90
30628;DHT22;17394;50.890;4.724;2023-04-07T06:22:18;7.40;99.90
30628;DHT22;17394;50.890;4.724;2023-04-07T06:24:43;7.50;99.90
30628;DHT22;17394;50.890;4.724;2023-04-07T06:27:09;7.60;99.90
30628;DHT22;17394;50.890;4.724;2023-04-07T06:29:35;7.70;99.90
30628;DHT22;17394;50.890;4.724;2023-04-07T06:32:01;7.80;99.90
30628;DHT22;17394;50.890;4.724;2023-04-07T06:34:26;7.90;99.90
30628;DHT22;17394;50.890;4.724;2023-04-07T06:36:52;8.00;99.90
30628;DHT22;17394;50.890;4.724;2023-04-07T06:39:18;8.10;99.90
30628;DHT22;17394;50.890;4.724;2023-04-07T06:41:52;8.10;99.90
30628;DHT22;17394;50.890;4.724;2023-04-07T06:44:17;8.20;99.90
30628;DHT22;17394;50.890;4.724;2023-04-07T06:46:43;8.30;99.90
30628;DHT22;17394;50.890;4.724;2023-04-07T06:49:11;8.30;99.90
30628;DHT22;17394;50.890;4.724;2023-04-07T06:51:37;8.40;99.90
30628;DHT22;17394;50.890;4.724;2023-04-07T06:54:03;8.50;99.90
30628;DHT22;17394;50.890;4.724;2023-04-07T06:56:29;8.60;99.90
30628;DHT22;17394;50.890;4.724;2023-04-07T06:58:55;8.70;99.90
30628;DHT22;17394;50.890;4.724;2023-04-07T07:01:23;8.60;99.90
30628;DHT22;17394;50.890;4.724;2023-04-07T07:03:49;8.70;99.90
30628;DHT22;17394;50.890;4.724;2023-04-07T07:06:14;8.80;99.90
30628;DHT22;17394;50.890;4.724;2023-04-07T07:08:40;8.90;99.90
30628;DHT22;17394;50.890;4.724;2023-04-07T07:11:06;8.90;99.90
30628;DHT22;17394;50.890;4.724;2023-04-07T07:13:32;9.00;99.90
30628;DHT22;17394;50.890;4.724;2023-04-07T07:15:57;9.10;99.90
30628;DHT22;17394;50.890;4.724;2023-04-07T07:18:23;9.20;99.90
30628;DHT22;17394;50.890;4.724;2023-04-07T07:20:49;9.20;99.90
30628;DHT22;17394;50.890;4.724;2023-04-07T07:23:15;9.10;99.90
30628;DHT22;17394;50.890;4.724;2023-04-07T07:25:40;9.00;99.90
30628;DHT22;17394;50.890;4.724;2023-04-07T07:28:06;8.90;99.90
30628;DHT22;17394;50.890;4.724;2023-04-07T07:30:33;9.00;99.90
30628;DHT22;17394;50.890;4.724;2023-04-07T07:32:59;9.00;99.90
30628;DHT22;17394;50.890;4.724;2023-04-07T07:35:24;9.10;99.90
30628;DHT22;17394;50.890;4.724;2023-04-07T07:37:51;9.10;99.90
30628;DHT22;17394;50.890;4.724;2023-04-07T07:40:17;9.10;99.90
30628;DHT22;17394;50.890;4.724;2023-04-07T07:42:43;9.20;99.90
30628;DHT22;17394;50.890;4.724;2023-04-07T07:45:08;9.30;99.90
30628;DHT22;17394;50.890;4.724;2023-04-07T07:47:34;9.40;99.90
30628;DHT22;17394;50.890;4.724;2023-04-07T07:50:02;9.60;99.90
30628;DHT22;17394;50.890;4.724;2023-04-07T07:52:28;9.50;99.90
30628;DHT22;17394;50.890;4.724;2023-04-07T07:54:53;9.50;99.90
30628;DHT22;17394;50.890;4.724;2023-04-07T07:57:19;9.40;99.90
30628;DHT22;17394;50.890;4.724;2023-04-07T07:59:44;9.50;99.90
30628;DHT22;17394;50.890;4.724;2023-04-07T08:02:11;9.50;99.90
30628;DHT22;17394;50.890;4.724;2023-04-07T08:04:36;9.60;99.90
30628;DHT22;17394;50.890;4.724;2023-04-07T08:07:02;9.70;99.90
30628;DHT22;17394;50.890;4.724;2023-04-07T08:09:28;10.10;99.90
30628;DHT22;17394;50.890;4.724;2023-04-07T08:11:54;10.30;99.90
30628;DHT22;17394;50.890;4.724;2023-04-07T08:14:19;10.40;99.90
30628;DHT22;17394;50.890;4.724;2023-04-07T08:16:45;10.20;99.90
30628;DHT22;17394;50.890;4.724;2023-04-07T08:19:11;10.20;99.90
30628;DHT22;17394;50.890;4.724;2023-04-07T08:21:37;10.20;99.90
30628;DHT22;17394;50.890;4.724;2023-04-07T08:24:03;10.10;99.90
30628;DHT22;17394;50.890;4.724;2023-04-07T08:26:29;10.10;99.90
30628;DHT22;17394;50.890;4.724;2023-04-07T08:28:55;10.00;99.90
30628;DHT22;17394;50.890;4.724;2023-04-07T08:31:21;10.00;99.90
30628;DHT22;17394;50.890;4.724;2023-04-07T08:33:46;10.00;99.90
30628;DHT22;17394;50.890;4.724;2023-04-07T08:36:12;9.90;99.90
30628;DHT22;17394;50.890;4.724;2023-04-07T08:38:37;10.00;99.90
30628;DHT22;17394;50.890;4.724;2023-04-07T08:41:07;10.20;99.90
30628;DHT22;17394;50.890;4.724;2023-04-07T08:43:36;10.40;99.90
30628;DHT22;17394;50.890;4.724;2023-04-07T08:46:02;10.60;99.90
30628;DHT22;17394;50.890;4.724;2023-04-07T08:48:29;10.70;99.90
30628;DHT22;17394;50.890;4.724;2023-04-07T08:51:03;10.70;99.90
30628;DHT22;17394;50.890;4.724;2023-04-07T08:53:32;10.60;99.90
30628;DHT22;17394;50.890;4.724;2023-04-07T08:56:00;10.50;99.90
30628;DHT22;17394;50.890;4.724;2023-04-07T08:58:26;10.40;99.90
30628;DHT22;17394;50.890;4.724;2023-04-07T09:00:52;10.30;99.90
30628;DHT22;17394;50.890;4.724;2023-04-07T09:03:18;10.40;99.90
30628;DHT22;17394;50.890;4.724;2023-04-07T09:05:44;10.50;99.90
30628;DHT22;17394;50.890;4.724;2023-04-07T09:08:10;10.50;99.90
30628;DHT22;17394;50.890;4.724;2023-04-07T09:10:36;10.60;99.90
30628;DHT22;17394;50.890;4.724;2023-04-07T09:13:02;10.70;99.90
30628;DHT22;17394;50.890;4.724;2023-04-07T09:15:31;10.80;99.90
30628;DHT22;17394;50.890;4.724;2023-04-07T09:17:57;11.00;99.90
30628;DHT22;17394;50.890;4.724;2023-04-07T09:20:23;11.00;99.90
30628;DHT22;17394;50.890;4.724;2023-04-07T09:22:49;11.00;99.90
30628;DHT22;17394;50.890;4.724;2023-04-07T09:25:19;10.90;99.90
30628;DHT22;17394;50.890;4.724;2023-04-07T09:28:20;10.90;99.90
30628;DHT22;17394;50.890;4.724;2023-04-07T09:30:39;10.90;99.90
30628;DHT22;17394;50.890;4.724;2023-04-07T09:33:17;10.90;99.90
30628;DHT22;17394;50.890;4.724;2023-04-07T09:35:51;10.90;99.90
30628;DHT22;17394;50.890;4.724;2023-04-07T09:38:20;10.80;99.90
30628;DHT22;17394;50.890;4.724;2023-04-07T09:40:46;10.90;99.90
30628;DHT22;17394;50.890;4.724;2023-04-07T09:43:18;10.90;99.90
30628;DHT22;17394;50.890;4.724;2023-04-07T09:45:44;11.00;99.90
30628;DHT22;17394;50.890;4.724;2023-04-07T09:48:20;11.30;99.90
30628;DHT22;17394;50.890;4.724;2023-04-07T09:50:46;11.40;99.90
30628;DHT22;17394;50.890;4.724;2023-04-07T09:53:16;11.50;99.90
30628;DHT22;17394;50.890;4.724;2023-04-07T09:55:43;11.70;99.90
30628;DHT22;17394;50.890;4.724;2023-04-07T09:58:12;11.70;99.90
30628;DHT22;17394;50.890;4.724;2023-04-07T10:00:39;11.80;99.90
30628;DHT22;17394;50.890;4.724;2023-04-07T10:03:06;11.90;99.90
30628;DHT22;17394;50.890;4.724;2023-04-07T10:05:32;11.90;99.90
30628;DHT22;17394;50.890;4.724;2023-04-07T10:07:59;12.00;99.90
30628;DHT22;17394;50.890;4.724;2023-04-07T10:10:26;12.20;99.90
30628;DHT22;17394;50.890;4.724;2023-04-07T10:12:53;12.50;99.90
30628;DHT22;17394;50.890;4.724;2023-04-07T10:15:19;12.70;99.90
30628;DHT22;17394;50.890;4.724;2023-04-07T10:17:45;12.70;99.90
30628;DHT22;17394;50.890;4.724;2023-04-07T10:20:12;12.50;99.90
30628;DHT22;17394;50.890;4.724;2023-04-07T10:22:40;12.30;99.90
30628;DHT22;17394;50.890;4.724;2023-04-07T10:25:07;12.00;99.90
30628;DHT22;17394;50.890;4.724;2023-04-07T10:30:05;11.70;99.90
30628;DHT22;17394;50.890;4.724;2023-04-07T10:32:49;11.70;99.90
30628;DHT22;17394;50.890;4.724;2023-04-07T10:35:15;11.70;99.90
30628;DHT22;17394;50.890;4.724;2023-04-07T10:38:06;11.70;99.90
30628;DHT22;17394;50.890;4.724;2023-04-07T10:40:27;11.60;99.90
30628;DHT22;17394;50.890;4.724;2023-04-07T10:42:52;11.60;99.90
30628;DHT22;17394;50.890;4.724;2023-04-07T10:45:27;11.50;99.90
30628;DHT22;17394;50.890;4.724;2023-04-07T10:50:29;11.70;99.90
30628;DHT22;17394;50.890;4.724;2023-04-07T10:55:32;12.00;99.90
30628;DHT22;17394;50.890;4.724;2023-04-07T11:00:39;11.90;99.90
30628;DHT22;17394;50.890;4.724;2023-04-07T11:03:12;11.70;99.90
30628;DHT22;17394;50.890;4.724;2023-04-07T11:05:41;11.60;99.90
30628;DHT22;17394;50.890;4.724;2023-04-07T11:08:07;11.40;99.90
30628;DHT22;17394;50.890;4.724;2023-04-07T11:10:33;11.20;99.90
30628;DHT22;17394;50.890;4.724;2023-04-07T11:13:00;11.20;99.90
30628;DHT22;17394;50.890;4.724;2023-04-07T11:15:26;11.10;99.90
30628;DHT22;17394;50.890;4.724;2023-04-07T11:20:39;11.20;99.90
30628;DHT22;17394;50.890;4.724;2023-04-07T11:23:05;11.20;99.90
30628;DHT22;17394;50.890;4.724;2023-04-07T11:25:31;11.30;99.90
30628;DHT22;17394;50.890;4.724;2023-04-07T11:27:58;11.40;99.90
30628;DHT22;17394;50.890;4.724;2023-04-07T11:30:23;11.40;99.90
30628;DHT22;17394;50.890;4.724;2023-04-07T11:32:49;11.60;99.90
30628;DHT22;17394;50.890;4.724;2023-04-07T11:35:15;11.90;99.90
30628;DHT22;17394;50.890;4.724;2023-04-07T11:37:41;12.10;99.90
30628;DHT22;17394;50.890;4.724;2023-04-07T11:40:07;12.20;99.90
30628;DHT22;17394;50.890;4.724;2023-04-07T11:42:33;12.30;99.90
30628;DHT22;17394;50.890;4.724;2023-04-07T11:44:59;12.30;99.90
30628;DHT22;17394;50.890;4.724;2023-04-07T11:47:35;12.30;99.90
30628;DHT22;17394;50.890;4.724;2023-04-07T11:50:01;12.20;99.90
30628;DHT22;17394;50.890;4.724;2023-04-07T11:52:27;12.10;99.90
30628;DHT22;17394;50.890;4.724;2023-04-07T11:54:53;12.00;99.90
30628;DHT22;17394;50.890;4.724;2023-04-07T11:57:25;11.90;99.90
30628;DHT22;17394;50.890;4.724;2023-04-07T12:00:07;11.90;99.90
30628;DHT22;17394;50.890;4.724;2023-04-07T12:02:33;11.90;99.90
30628;DHT22;17394;50.890;4.724;2023-04-07T12:05:00;11.80;99.90
30628;DHT22;17394;50.890;4.724;2023-04-07T12:07:25;11.90;99.90
30628;DHT22;17394;50.890;4.724;2023-04-07T12:09:52;12.00;99.90
30628;DHT22;17394;50.890;4.724;2023-04-07T12:12:27;12.00;99.90
30628;DHT22;17394;50.890;4.724;2023-04-07T12:14:53;12.10;99.90
30628;DHT22;17394;50.890;4.724;2023-04-07T12:17:23;12.20;99.90
30628;DHT22;17394;50.890;4.724;2023-04-07T12:19:48;12.10;99.90
30628;DHT22;17394;50.890;4.724;2023-04-07T12:22:14;11.90;99.90
30628;DHT22;17394;50.890;4.724;2023-04-07T12:24:40;11.60;99.90
30628;DHT22;17394;50.890;4.724;2023-04-07T12:27:05;11.50;99.90
30628;DHT22;17394;50.890;4.724;2023-04-07T12:29:32;11.30;99.90
30628;DHT22;17394;50.890;4.724;2023-04-07T12:31:57;11.20;99.90
30628;DHT22;17394;50.890;4.724;2023-04-07T12:34:23;11.20;99.90
30628;DHT22;17394;50.890;4.724;2023-04-07T12:36:49;11.20;99.90
30628;DHT22;17394;50.890;4.724;2023-04-07T12:39:15;11.20;99.90
30628;DHT22;17394;50.890;4.724;2023-04-07T12:41:40;11.20;99.90
30628;DHT22;17394;50.890;4.724;2023-04-07T12:44:06;11.10;99.90
30628;DHT22;17394;50.890;4.724;2023-04-07T12:46:32;11.20;99.90
30628;DHT22;17394;50.890;4.724;2023-04-07T12:48:57;11.20;99.90
30628;DHT22;17394;50.890;4.724;2023-04-07T12:51:24;11.20;99.90
30628;DHT22;17394;50.890;4.724;2023-04-07T12:53:50;11.30;99.90
30628;DHT22;17394;50.890;4.724;2023-04-07T12:56:16;11.30;99.90
30628;DHT22;17394;50.890;4.724;2023-04-07T12:58:41;11.40;99.90
30628;DHT22;17394;50.890;4.724;2023-04-07T13:01:07;11.50;99.90
30628;DHT22;17394;50.890;4.724;2023-04-07T13:03:33;11.60;99.90
30628;DHT22;17394;50.890;4.724;2023-04-07T13:05:58;11.70;99.90
30628;DHT22;17394;50.890;4.724;2023-04-07T13:08:26;11.90;99.90
30628;DHT22;17394;50.890;4.724;2023-04-07T13:10:52;12.00;99.90
30628;DHT22;17394;50.890;4.724;2023-04-07T13:13:18;12.30;99.90
30628;DHT22;17394;50.890;4.724;2023-04-07T13:15:43;12.40;99.90
30628;DHT22;17394;50.890;4.724;2023-04-07T13:18:09;12.60;99.90
30628;DHT22;17394;50.890;4.724;2023-04-07T13:20:35;12.70;99.90
30628;DHT22;17394;50.890;4.724;2023-04-07T13:23:00;12.80;99.90
30628;DHT22;17394;50.890;4.724;2023-04-07T13:25:26;13.00;99.90
30628;DHT22;17394;50.890;4.724;2023-04-07T13:27:52;13.20;99.90
30628;DHT22;17394;50.890;4.724;2023-04-07T13:30:17;13.40;99.90
30628;DHT22;17394;50.890;4.724;2023-04-07T13:32:43;13.60;99.90
30628;DHT22;17394;50.890;4.724;2023-04-07T13:35:09;13.80;99.90
30628;DHT22;17394;50.890;4.724;2023-04-07T13:37:34;14.00;99.90
30628;DHT22;17394;50.890;4.724;2023-04-07T13:40:00;14.00;99.90
30628;DHT22;17394;50.890;4.724;2023-04-07T13:42:25;13.70;99.90
30628;DHT22;17394;50.890;4.724;2023-04-07T13:44:51;13.30;99.90
30628;DHT22;17394;50.890;4.724;2023-04-07T13:47:18;13.00;99.90
30628;DHT22;17394;50.890;4.724;2023-04-07T13:49:45;12.70;99.90
30628;DHT22;17394;50.890;4.724;2023-04-07T13:52:11;12.40;99.90
30628;DHT22;17394;50.890;4.724;2023-04-07T13:54:37;12.10;99.90
30628;DHT22;17394;50.890;4.724;2023-04-07T13:57:03;11.90;99.90
30628;DHT22;17394;50.890;4.724;2023-04-07T13:59:29;11.80;99.90
30628;DHT22;17394;50.890;4.724;2023-04-07T14:01:55;11.60;99.90
30628;DHT22;17394;50.890;4.724;2023-04-07T14:04:21;11.50;99.90
30628;DHT22;17394;50.890;4.724;2023-04-07T14:06:47;11.50;99.90
30628;DHT22;17394;50.890;4.724;2023-04-07T14:09:13;11.50;99.90
30628;DHT22;17394;50.890;4.724;2023-04-07T14:11:39;11.60;99.90
30628;DHT22;17394;50.890;4.724;2023-04-07T14:14:05;11.60;99.90
30628;DHT22;17394;50.890;4.724;2023-04-07T14:16:31;11.70;99.90
30628;DHT22;17394;50.890;4.724;2023-04-07T14:18:57;11.70;99.90
30628;DHT22;17394;50.890;4.724;2023-04-07T14:21:23;11.70;99.90
30628;DHT22;17394;50.890;4.724;2023-04-07T14:23:49;11.70;99.90
30628;DHT22;17394;50.890;4.724;2023-04-07T14:26:15;11.80;99.90
30628;DHT22;17394;50.890;4.724;2023-04-07T14:28:41;11.80;99.90
30628;DHT22;17394;50.890;4.724;2023-04-07T14:31:11;11.80;99.90
30628;DHT22;17394;50.890;4.724;2023-04-07T14:33:36;11.70;99.90
30628;DHT22;17394;50.890;4.724;2023-04-07T14:36:02;11.70;99.90
30628;DHT22;17394;50.890;4.724;2023-04-07T14:38:27;11.70;99.90
30628;DHT22;17394;50.890;4.724;2023-04-07T14:40:53;11.70;99.90
30628;DHT22;17394;50.890;4.724;2023-04-07T14:43:19;11.70;99.90
30628;DHT22;17394;50.890;4.724;2023-04-07T14:45:44;11.70;99.90
30628;DHT22;17394;50.890;4.724;2023-04-07T14:48:10;11.70;99.90
30628;DHT22;17394;50.890;4.724;2023-04-07T14:50:36;11.60;99.90
30628;DHT22;17394;50.890;4.724;2023-04-07T14:53:01;11.60;99.90
30628;DHT22;17394;50.890;4.724;2023-04-07T14:55:27;11.60;99.90
30628;DHT22;17394;50.890;4.724;2023-04-07T14:57:55;11.70;99.90
30628;DHT22;17394;50.890;4.724;2023-04-07T15:00:21;11.70;99.90
30628;DHT22;17394;50.890;4.724;2023-04-07T15:02:46;11.70;99.90
30628;DHT22;17394;50.890;4.724;2023-04-07T15:05:12;11.80;99.90
30628;DHT22;17394;50.890;4.724;2023-04-07T15:07:38;11.90;99.90
30628;DHT22;17394;50.890;4.724;2023-04-07T15:10:03;11.90;99.90
30628;DHT22;17394;50.890;4.724;2023-04-07T15:12:29;12.10;99.90
30628;DHT22;17394;50.890;4.724;2023-04-07T15:14:56;12.20;99.90
30628;DHT22;17394;50.890;4.724;2023-04-07T15:17:21;12.40;99.90
30628;DHT22;17394;50.890;4.724;2023-04-07T15:19:47;12.60;99.90
30628;DHT22;17394;50.890;4.724;2023-04-07T15:22:13;12.80;99.90
30628;DHT22;17394;50.890;4.724;2023-04-07T15:24:39;12.90;99.90
30628;DHT22;17394;50.890;4.724;2023-04-07T15:27:04;12.90;99.90
30628;DHT22;17394;50.890;4.724;2023-04-07T15:29:30;13.00;99.90
30628;DHT22;17394;50.890;4.724;2023-04-07T15:31:56;12.90;99.90
30628;DHT22;17394;50.890;4.724;2023-04-07T15:34:22;12.90;99.90
30628;DHT22;17394;50.890;4.724;2023-04-07T15:36:47;12.70;99.90
30628;DHT22;17394;50.890;4.724;2023-04-07T15:39:13;12.50;99.90
30628;DHT22;17394;50.890;4.724;2023-04-07T15:41:39;12.30;99.90
30628;DHT22;17394;50.890;4.724;2023-04-07T15:44:04;12.20;99.90
30628;DHT22;17394;50.890;4.724;2023-04-07T15:46:30;12.30;99.90
30628;DHT22;17394;50.890;4.724;2023-04-07T15:48:59;12.20;99.90
30628;DHT22;17394;50.890;4.724;2023-04-07T15:51:25;12.30;99.90
30628;DHT22;17394;50.890;4.724;2023-04-07T15:53:52;12.30;99.90